createdAt,value
2022-12-13T00:02:53.278Z,96095.81
2022-12-13T00:05:50.173Z,96086.69
2022-12-13T00:08:47.105Z,96094.34
2022-12-13T00:11:44.635Z,96092.56
2022-12-13T00:14:41.676Z,96087.72
2022-12-13T00:17:38.558Z,96077.81
2022-12-13T00:20:39.627Z,96080.28
2022-12-13T00:23:36.662Z,96075.34
2022-12-13T00:26:34.101Z,96068.56
2022-12-13T00:29:31.146Z,96071.78
2022-12-13T00:32:28.041Z,96066.97
2022-12-13T00:35:25.071Z,96061.97
2022-12-13T00:38:23.347Z,96063.25
2022-12-13T00:41:20.993Z,96061.72
2022-12-13T00:44:20.129Z,96057.09
2022-12-13T00:47:18.994Z,96058.03
2022-12-13T00:50:15.990Z,96063.38
2022-12-13T00:53:12.956Z,96056.94
2022-12-13T00:56:13.285Z,96054.44
2022-12-13T00:59:15.809Z,96047.84
2022-12-13T01:02:13.088Z,96040.78
2022-12-13T01:05:11.486Z,96045.38
2022-12-13T01:08:08.531Z,96042.06
2022-12-13T01:11:06.841Z,96045.34
2022-12-13T01:14:03.760Z,96041.56
2022-12-13T01:17:00.759Z,96039.78
2022-12-13T01:19:57.792Z,96041.03
2022-12-13T01:22:54.646Z,96044.28
2022-12-13T01:25:51.792Z,96041.38
2022-12-13T01:28:49.362Z,96054.56
2022-12-13T01:31:46.489Z,96043.84
2022-12-13T01:34:43.438Z,96046.38
2022-12-13T01:37:40.356Z,96050.31
2022-12-13T01:40:45.118Z,96038.56
2022-12-13T01:43:41.877Z,96046.81
2022-12-13T01:46:38.750Z,96051.16
2022-12-13T01:49:35.984Z,96046.25
2022-12-13T01:52:34.325Z,96048.03
2022-12-13T01:55:41.673Z,96051.66
2022-12-13T01:58:40.073Z,96044.94
2022-12-13T02:01:38.154Z,96048.34
2022-12-13T02:04:45.362Z,96043.34
2022-12-13T02:07:45.035Z,96033.91
2022-12-13T02:10:43.733Z,96039.88
2022-12-13T02:13:40.845Z,96042.47
2022-12-13T02:17:12.532Z,96046.94
2022-12-13T02:20:37.457Z,96041.97
2022-12-13T02:24:10.601Z,96044.53
2022-12-13T02:27:49.004Z,96036.69
2022-12-13T02:30:55.908Z,96035.63
2022-12-13T02:34:21.829Z,96039.00
2022-12-13T02:37:33.134Z,96033.03
2022-12-13T02:40:49.154Z,96026.44
2022-12-13T02:44:21.958Z,96032.66
2022-12-13T02:47:23.764Z,96028.16
2022-12-13T02:50:22.479Z,96036.25
2022-12-13T02:53:22.536Z,96034.00
2022-12-13T02:56:19.298Z,96028.56
2022-12-13T02:59:16.216Z,96026.44
2022-12-13T03:02:39.282Z,96029.50
2022-12-13T03:06:11.031Z,96027.13
2022-12-13T03:09:38.237Z,96035.22
2022-12-13T03:13:00.252Z,96019.59
2022-12-13T03:16:00.633Z,96023.69
2022-12-13T03:19:07.592Z,96026.38
2022-12-13T03:22:07.015Z,96013.28
2022-12-13T03:25:03.995Z,96016.72
2022-12-13T03:28:02.182Z,96018.50
2022-12-13T03:30:59.624Z,96017.41
2022-12-13T03:33:56.620Z,96022.06
2022-12-13T03:36:53.891Z,96017.97
2022-12-13T03:39:51.174Z,96013.09
2022-12-13T03:42:48.399Z,96014.78
2022-12-13T03:45:45.229Z,96016.72
2022-12-13T03:48:42.119Z,96007.03
2022-12-13T03:51:38.982Z,96006.56
2022-12-13T03:54:35.976Z,96004.16
2022-12-13T03:57:32.886Z,96007.94
2022-12-13T04:00:29.736Z,96004.88
2022-12-13T04:03:26.676Z,95994.75
2022-12-13T04:06:26.367Z,95995.66
2022-12-13T04:09:26.717Z,95991.41
2022-12-13T04:12:45.434Z,95994.72
2022-12-13T04:15:48.978Z,95990.97
2022-12-13T04:18:45.959Z,95991.06
2022-12-13T04:21:42.794Z,95997.94
2022-12-13T04:24:39.601Z,95996.94
2022-12-13T04:27:38.035Z,95995.94
2022-12-13T04:30:35.981Z,95996.94
2022-12-13T04:33:33.720Z,95988.28
2022-12-13T04:36:32.719Z,95993.19
2022-12-13T04:39:34.400Z,95983.41
2022-12-13T04:42:31.670Z,95988.47
2022-12-13T04:45:28.586Z,95981.63
2022-12-13T04:48:31.405Z,95982.69
2022-12-13T04:51:28.883Z,95985.19
2022-12-13T04:54:25.693Z,95991.66
2022-12-13T04:57:22.851Z,95996.31
2022-12-13T05:00:22.088Z,95990.16
2022-12-13T05:03:18.994Z,95995.69
2022-12-13T05:06:27.166Z,95987.44
2022-12-13T05:09:25.018Z,96001.19
2022-12-13T05:12:23.390Z,95991.78
2022-12-13T05:15:20.595Z,96006.84
2022-12-13T05:18:17.409Z,95994.97
2022-12-13T05:21:14.269Z,95997.38
2022-12-13T05:24:11.151Z,95989.91
2022-12-13T05:27:25.841Z,95982.16
2022-12-13T05:30:23.422Z,95978.22
2022-12-13T05:33:20.294Z,95987.94
2022-12-13T05:36:17.850Z,95980.63
2022-12-13T05:39:28.382Z,95986.13
2022-12-13T05:42:26.500Z,95985.44
2022-12-13T05:45:23.956Z,95981.81
2022-12-13T05:48:24.535Z,95978.59
2022-12-13T05:51:21.939Z,95988.75
2022-12-13T05:54:18.799Z,95990.44
2022-12-13T05:57:15.646Z,95984.94
2022-12-13T06:00:30.079Z,95989.38
2022-12-13T06:03:27.913Z,95987.06
2022-12-13T06:06:25.386Z,95994.00
2022-12-13T06:09:23.042Z,95989.13
2022-12-13T06:12:31.662Z,95993.13
2022-12-13T06:15:34.722Z,95995.50
2022-12-13T06:18:34.994Z,95986.34
2022-12-13T06:21:41.212Z,95987.59
2022-12-13T06:24:42.651Z,95982.69
2022-12-13T06:27:39.650Z,95989.38
2022-12-13T06:30:37.095Z,95986.34
2022-12-13T06:33:39.694Z,95986.72
2022-12-13T06:36:36.752Z,95988.56
2022-12-13T06:39:34.678Z,95985.91
2022-12-13T06:42:31.679Z,95990.09
2022-12-13T06:45:28.519Z,95993.66
2022-12-13T06:48:26.123Z,95986.50
2022-12-13T06:51:32.270Z,95988.22
2022-12-13T06:54:30.185Z,95985.13
2022-12-13T06:57:27.028Z,95986.34
2022-12-13T07:00:28.507Z,95986.63
2022-12-13T07:03:34.947Z,95981.56
2022-12-13T07:06:31.812Z,95981.00
2022-12-13T07:09:32.657Z,95981.19
2022-12-13T07:12:29.492Z,95986.16
2022-12-13T07:15:26.428Z,95990.06
2022-12-13T07:18:23.334Z,95993.47
2022-12-13T07:21:21.891Z,95992.75
2022-12-13T07:24:19.352Z,96000.94
2022-12-13T07:27:16.223Z,95992.66
2022-12-13T07:30:13.215Z,95999.59
2022-12-13T07:33:10.107Z,95994.09
2022-12-13T07:36:11.691Z,95999.97
2022-12-13T07:39:08.511Z,96002.47
2022-12-13T07:42:05.380Z,96006.47
2022-12-13T07:45:02.255Z,96002.06
2022-12-13T07:48:06.466Z,96013.72
2022-12-13T07:51:07.349Z,96003.09
2022-12-13T07:54:06.749Z,96002.31
2022-12-13T07:57:04.630Z,95998.47
2022-12-13T08:00:01.763Z,96001.41
2022-12-13T08:02:58.623Z,96001.31
2022-12-13T08:06:22.045Z,95999.72
2022-12-13T08:09:18.928Z,96007.56
2022-12-13T08:12:15.840Z,96012.53
2022-12-13T08:15:20.133Z,96007.97
2022-12-13T08:18:16.970Z,95997.03
2022-12-13T08:21:52.760Z,96009.06
2022-12-13T08:24:32.308Z,96008.88
2022-12-13T08:27:29.524Z,96008.16
2022-12-13T08:30:26.359Z,96006.88
2022-12-13T08:33:23.300Z,96003.00
2022-12-13T08:36:24.038Z,95996.50
2022-12-13T08:39:20.851Z,95998.50
2022-12-13T08:42:20.299Z,95997.31
2022-12-13T08:45:17.357Z,96003.44
2022-12-13T08:48:14.217Z,96005.09
2022-12-13T08:51:14.817Z,96003.25
2022-12-13T08:54:30.998Z,96001.66
2022-12-13T08:57:28.074Z,95993.09
2022-12-13T09:00:24.971Z,96000.56
2022-12-13T09:03:22.389Z,96000.97
2022-12-13T09:06:19.399Z,95995.69
2022-12-13T09:09:16.836Z,95989.13
2022-12-13T09:12:30.691Z,95985.44
2022-12-13T09:15:33.933Z,95995.25
2022-12-13T09:18:36.226Z,95991.75
2022-12-13T09:21:33.601Z,96000.16
2022-12-13T09:24:35.958Z,96000.25
2022-12-13T09:27:39.841Z,95996.91
2022-12-13T09:30:39.045Z,95993.75
2022-12-13T09:33:41.583Z,95991.16
2022-12-13T09:36:38.853Z,95999.59
2022-12-13T09:39:35.670Z,95993.47
2022-12-13T09:42:34.833Z,95990.69
2022-12-13T09:45:44.347Z,95992.34
2022-12-13T09:48:42.148Z,95997.72
2022-12-13T09:52:04.499Z,95992.38
2022-12-13T09:55:24.570Z,95992.41
2022-12-13T09:58:27.783Z,95987.84
2022-12-13T10:01:25.056Z,95982.47
2022-12-13T10:04:21.979Z,95976.94
2022-12-13T10:07:23.438Z,95979.72
2022-12-13T10:10:20.852Z,95976.94
2022-12-13T10:13:37.066Z,95973.38
2022-12-13T10:16:37.365Z,95971.41
2022-12-13T10:19:46.675Z,95985.97
2022-12-13T10:22:52.199Z,95968.88
2022-12-13T10:26:03.322Z,95979.47
2022-12-13T10:29:05.315Z,95970.31
2022-12-13T10:32:13.331Z,95966.91
2022-12-13T10:35:27.313Z,95960.34
2022-12-13T10:38:32.283Z,95957.97
2022-12-13T10:41:38.666Z,95958.59
2022-12-13T10:44:35.499Z,95961.78
2022-12-13T10:47:32.403Z,95947.97
2022-12-13T10:50:31.021Z,95962.97
2022-12-13T10:53:55.032Z,95951.41
2022-12-13T10:56:54.120Z,95939.44
2022-12-13T10:59:52.379Z,95946.00
2022-12-13T11:02:55.728Z,95936.84
2022-12-13T11:06:18.003Z,95940.22
2022-12-13T11:09:38.729Z,95936.44
2022-12-13T11:12:36.635Z,95932.44
2022-12-13T11:15:37.831Z,95931.25
2022-12-13T11:18:37.409Z,95924.47
2022-12-13T11:21:37.857Z,95915.47
2022-12-13T11:24:40.781Z,95915.25
2022-12-13T11:28:26.920Z,95902.84
2022-12-13T11:31:59.654Z,95898.66
2022-12-13T11:35:27.133Z,95889.44
2022-12-13T11:38:57.907Z,95888.69
2022-12-13T11:42:40.609Z,95885.38
2022-12-13T11:45:47.065Z,95887.09
2022-12-13T11:48:58.839Z,95872.66
2022-12-13T11:52:12.297Z,95875.69
2022-12-13T11:55:35.577Z,95869.72
2022-12-13T11:59:26.008Z,95865.28
2022-12-13T12:02:40.099Z,95863.72
2022-12-13T12:05:55.830Z,95850.88
2022-12-13T12:09:14.262Z,95846.63
2022-12-13T12:12:27.092Z,95850.72
2022-12-13T12:15:31.258Z,95846.31
2022-12-13T12:18:28.760Z,95855.13
2022-12-13T12:22:14.839Z,95852.03
2022-12-13T12:25:45.360Z,95838.81
2022-12-13T12:29:52.216Z,95837.25
2022-12-13T12:33:42.372Z,95833.63
2022-12-13T12:37:08.763Z,95831.13
2022-12-13T12:40:12.185Z,95831.97
2022-12-13T12:43:35.571Z,95834.28
2022-12-13T12:47:56.396Z,95833.31
2022-12-13T12:50:57.938Z,95831.75
2022-12-13T12:54:26.177Z,95831.97
2022-12-13T12:57:56.139Z,95833.69
2022-12-13T13:01:20.715Z,95833.50
2022-12-13T13:04:22.276Z,95830.50
2022-12-13T13:07:51.479Z,95833.19
2022-12-13T13:10:50.499Z,95829.84
2022-12-13T13:14:01.315Z,95830.41
2022-12-13T13:17:20.941Z,95835.06
2022-12-13T13:20:23.409Z,95838.56
2022-12-13T13:23:39.437Z,95841.41
2022-12-13T13:26:39.999Z,95836.66
2022-12-13T13:29:43.216Z,95832.19
2022-12-13T13:32:41.119Z,95845.25
2022-12-13T13:35:48.068Z,95845.25
2022-12-13T13:38:51.349Z,95847.81
2022-12-13T13:42:20.080Z,95845.78
2022-12-13T13:45:23.922Z,95853.53
2022-12-13T13:49:01.602Z,95843.97
2022-12-13T13:52:26.890Z,95860.53
2022-12-13T13:56:10.534Z,95863.63
2022-12-13T13:59:47.278Z,95865.28
2022-12-13T14:03:34.317Z,95854.53
2022-12-13T14:06:51.196Z,95850.09
2022-12-13T14:10:18.140Z,95862.81
2022-12-13T14:14:01.946Z,95862.06
2022-12-13T14:17:20.087Z,95859.38
2022-12-13T14:20:44.062Z,95856.91
2022-12-13T14:24:16.626Z,95861.31
2022-12-13T14:27:39.660Z,95853.72
2022-12-13T14:30:47.829Z,95855.84
2022-12-13T14:33:57.984Z,95851.84
2022-12-13T14:37:03.624Z,95848.34
2022-12-13T14:40:02.705Z,95844.41
2022-12-13T14:43:00.615Z,95847.59
2022-12-13T14:46:04.172Z,95849.00
2022-12-13T14:49:05.019Z,95850.19
2022-12-13T14:52:07.764Z,95856.34
2022-12-13T14:55:06.100Z,95846.94
2022-12-13T14:58:19.641Z,95858.06
2022-12-13T15:01:34.788Z,95853.88
2022-12-13T15:04:35.810Z,95869.31
2022-12-13T15:07:41.221Z,95862.78
2022-12-13T15:10:48.330Z,95863.16
2022-12-13T15:13:52.900Z,95863.81
2022-12-13T15:16:54.089Z,95865.63
2022-12-13T15:19:51.039Z,95871.25
2022-12-13T15:22:48.546Z,95869.84
2022-12-13T15:25:46.692Z,95868.44
2022-12-13T15:28:53.760Z,95863.66
2022-12-13T15:31:50.723Z,95869.81
2022-12-13T15:34:47.712Z,95872.75
2022-12-13T15:37:46.772Z,95871.53
2022-12-13T15:40:49.342Z,95867.34
2022-12-13T15:43:51.262Z,95859.38
2022-12-13T15:46:51.229Z,95862.50
2022-12-13T15:50:01.859Z,95851.50
2022-12-13T15:53:03.541Z,95866.75
2022-12-13T15:56:03.491Z,95854.78
2022-12-13T15:59:23.215Z,95851.38
2022-12-13T16:02:25.381Z,95848.28
2022-12-13T16:05:48.723Z,95846.38
2022-12-13T16:08:50.027Z,95839.41
2022-12-13T16:11:58.820Z,95848.09
2022-12-13T16:15:29.442Z,95848.47
2022-12-13T16:18:42.785Z,95839.47
2022-12-13T16:21:39.719Z,95838.59
2022-12-13T16:24:36.950Z,95836.09
2022-12-13T16:27:33.814Z,95841.16
2022-12-13T16:30:54.530Z,95837.16
2022-12-13T16:33:51.537Z,95834.56
2022-12-13T16:36:48.500Z,95838.75
2022-12-13T16:39:46.414Z,95836.38
2022-12-13T16:42:43.270Z,95826.78
2022-12-13T16:45:44.836Z,95826.41
2022-12-13T16:48:41.744Z,95829.41
2022-12-13T16:51:41.411Z,95828.19
2022-12-13T16:54:41.870Z,95826.19
2022-12-13T16:57:39.828Z,95813.00
2022-12-13T17:00:36.695Z,95814.22
2022-12-13T17:03:33.513Z,95816.84
2022-12-13T17:06:30.443Z,95813.25
2022-12-13T17:09:27.290Z,95812.47
2022-12-13T17:12:26.412Z,95818.22
2022-12-13T17:15:23.485Z,95818.66
2022-12-13T17:18:20.374Z,95820.66
2022-12-13T17:21:17.618Z,95818.44
2022-12-13T17:24:15.315Z,95809.06
2022-12-13T17:27:12.309Z,95814.66
2022-12-13T17:30:15.162Z,95809.66
2022-12-13T17:33:13.242Z,95802.28
2022-12-13T17:36:12.004Z,95805.06
2022-12-13T17:39:11.121Z,95813.84
2022-12-13T17:42:08.375Z,95798.09
2022-12-13T17:45:06.089Z,95792.50
2022-12-13T17:48:03.015Z,95795.91
2022-12-13T17:51:00.630Z,95796.91
2022-12-13T17:53:57.487Z,95779.72
2022-12-13T17:56:54.916Z,95775.16
2022-12-13T17:59:51.959Z,95772.56
2022-12-13T18:02:55.433Z,95775.56
2022-12-13T18:05:58.398Z,95781.53
2022-12-13T18:08:55.355Z,95780.34
2022-12-13T18:11:52.403Z,95781.75
2022-12-13T18:14:50.879Z,95782.13
2022-12-13T18:18:10.926Z,95772.97
2022-12-13T18:21:07.812Z,95771.56
2022-12-13T18:24:06.778Z,95779.13
2022-12-13T18:27:03.828Z,95783.13
2022-12-13T18:30:01.387Z,95781.53
2022-12-13T18:32:59.023Z,95779.34
2022-12-13T18:35:55.898Z,95777.13
2022-12-13T18:38:53.108Z,95774.94
2022-12-13T18:41:49.975Z,95790.31
2022-12-13T18:44:50.836Z,95790.09
2022-12-13T18:47:51.925Z,95789.50
2022-12-13T18:50:49.063Z,95800.69
2022-12-13T18:53:45.960Z,95800.09
2022-12-13T18:56:42.879Z,95797.50
2022-12-13T18:59:39.716Z,95801.69
2022-12-13T19:02:36.666Z,95794.53
2022-12-13T19:05:33.673Z,95806.28
2022-12-13T19:08:30.769Z,95801.09
2022-12-13T19:11:28.311Z,95790.94
2022-12-13T19:14:27.153Z,95776.94
2022-12-13T19:17:24.147Z,95769.56
2022-12-13T19:20:21.256Z,95769.56
2022-12-13T19:23:19.676Z,95767.78
2022-12-13T19:26:16.808Z,95752.63
2022-12-13T19:29:14.179Z,95751.41
2022-12-13T19:32:11.071Z,95741.22
2022-12-13T19:35:08.650Z,95738.63
2022-12-13T19:38:05.555Z,95731.63
2022-12-13T19:41:17.277Z,95740.63
2022-12-13T19:44:14.267Z,95730.66
2022-12-13T19:47:11.152Z,95732.25
2022-12-13T19:50:08.509Z,95727.44
2022-12-13T19:53:06.856Z,95722.09
2022-12-13T19:56:10.793Z,95712.47
2022-12-13T19:59:08.021Z,95712.69
2022-12-13T20:02:05.822Z,95714.28
2022-12-13T20:05:02.821Z,95718.66
2022-12-13T20:07:59.985Z,95727.88
2022-12-13T20:11:04.662Z,95732.25
2022-12-13T20:14:01.631Z,95736.84
2022-12-13T20:16:58.482Z,95738.44
2022-12-13T20:19:55.639Z,95740.66
2022-12-13T20:22:52.642Z,95727.47
2022-12-13T20:26:02.677Z,95737.66
2022-12-13T20:29:00.149Z,95729.28
2022-12-13T20:31:57.025Z,95731.88
2022-12-13T20:34:55.064Z,95732.25
2022-12-13T20:37:52.915Z,95732.84
2022-12-13T20:40:49.752Z,95733.25
2022-12-13T20:43:48.236Z,95734.25
2022-12-13T20:46:45.598Z,95735.84
2022-12-13T20:49:44.232Z,95725.28
2022-12-13T20:52:50.638Z,95723.88
2022-12-13T20:55:48.338Z,95715.47
2022-12-13T20:58:45.857Z,95709.13
2022-12-13T21:01:44.849Z,95712.09
2022-12-13T21:04:46.026Z,95702.75
2022-12-13T21:08:01.385Z,95711.72
2022-12-13T21:11:19.371Z,95707.31
2022-12-13T21:14:26.005Z,95705.53
2022-12-13T21:17:22.930Z,95698.16
2022-12-13T21:20:19.833Z,95702.34
2022-12-13T21:23:16.667Z,95700.53
2022-12-13T21:26:13.526Z,95704.31
2022-12-13T21:29:12.657Z,95695.34
2022-12-13T21:32:09.527Z,95685.97
2022-12-13T21:35:09.435Z,95689.59
2022-12-13T21:38:06.296Z,95676.00
2022-12-13T21:41:04.577Z,95669.41
2022-12-13T21:44:01.591Z,95667.41
2022-12-13T21:47:14.020Z,95668.16
2022-12-13T21:50:10.976Z,95660.34
2022-12-13T21:53:07.804Z,95660.13
2022-12-13T21:56:28.102Z,95655.94
2022-12-13T21:59:27.676Z,95637.94
2022-12-13T22:02:24.556Z,95634.28
2022-12-13T22:05:21.969Z,95637.44
2022-12-13T22:08:18.929Z,95634.03
2022-12-13T22:11:21.307Z,95638.81
2022-12-13T22:14:18.938Z,95639.94
2022-12-13T22:17:16.894Z,95633.13
2022-12-13T22:20:15.328Z,95630.31
2022-12-13T22:23:12.448Z,95629.09
2022-12-13T22:26:09.273Z,95631.91
2022-12-13T22:29:06.209Z,95620.47
2022-12-13T22:32:03.279Z,95622.44
2022-12-13T22:35:00.262Z,95613.63
2022-12-13T22:38:01.370Z,95598.44
2022-12-13T22:41:06.175Z,95590.47
2022-12-13T22:44:03.197Z,95590.25
2022-12-13T22:47:00.085Z,95583.84
2022-12-13T22:49:56.897Z,95583.34
2022-12-13T22:52:53.737Z,95585.94
2022-12-13T22:55:50.567Z,95578.72
2022-12-13T22:58:51.937Z,95585.31
2022-12-13T23:01:48.836Z,95578.72
2022-12-13T23:04:45.695Z,95570.09
2022-12-13T23:07:42.510Z,95563.22
2022-12-13T23:11:04.106Z,95564.19
2022-12-13T23:14:04.546Z,95551.41
2022-12-13T23:17:02.693Z,95543.97
2022-12-13T23:19:59.684Z,95545.78
2022-12-13T23:22:56.554Z,95527.00
2022-12-13T23:25:53.425Z,95521.53
2022-12-13T23:28:54.496Z,95513.88
2022-12-13T23:31:51.353Z,95511.44
2022-12-13T23:34:48.193Z,95503.63
2022-12-13T23:37:45.005Z,95502.97
2022-12-13T23:40:45.376Z,95509.28
2022-12-13T23:43:44.421Z,95494.47
2022-12-13T23:46:48.129Z,95500.00
2022-12-13T23:49:45.780Z,95498.22
2022-12-13T23:52:45.280Z,95493.00
2022-12-13T23:55:42.097Z,95498.56
2022-12-13T23:58:40.986Z,95496.69
